createdAt,value
2022-12-18T00:01:42.047Z,13.77
2022-12-18T00:04:14.136Z,10.77
2022-12-18T00:06:40.983Z,10.75
2022-12-18T00:09:08.405Z,11.20
2022-12-18T00:11:35.068Z,10.77
2022-12-18T00:14:01.777Z,9.43
2022-12-18T00:16:29.089Z,10.77
2022-12-18T00:18:57.639Z,9.85
2022-12-18T00:21:24.325Z,9.55
2022-12-18T00:23:51.148Z,9.55
2022-12-18T00:26:23.034Z,9.90
2022-12-18T00:28:50.071Z,10.98
2022-12-18T00:31:21.316Z,11.10
2022-12-18T00:33:48.123Z,8.93
2022-12-18T00:36:21.969Z,10.07
2022-12-18T00:38:48.824Z,7.35
2022-12-18T00:41:16.331Z,10.77
2022-12-18T00:43:43.172Z,9.80
2022-12-18T00:46:09.953Z,9.35
2022-12-18T00:48:36.688Z,11.05
2022-12-18T00:51:03.510Z,9.85
2022-12-18T00:53:30.209Z,11.07
2022-12-18T00:55:56.892Z,11.77
2022-12-18T00:58:23.586Z,12.15
2022-12-18T01:00:50.300Z,11.98
2022-12-18T01:03:17.092Z,10.85
2022-12-18T01:05:43.877Z,11.13
2022-12-18T01:08:10.565Z,12.25
2022-12-18T01:10:37.228Z,11.27
2022-12-18T01:13:03.949Z,10.60
2022-12-18T01:15:30.610Z,13.68
2022-12-18T01:17:57.331Z,10.43
2022-12-18T01:20:24.016Z,11.63
2022-12-18T01:22:50.672Z,12.90
2022-12-18T01:25:17.437Z,12.80
2022-12-18T01:27:44.144Z,11.52
2022-12-18T01:30:11.342Z,10.48
2022-12-18T01:32:38.063Z,10.02
2022-12-18T01:35:05.201Z,9.82
2022-12-18T01:37:31.965Z,10.40
2022-12-18T01:39:58.648Z,10.48
2022-12-18T01:42:25.357Z,9.68
2022-12-18T01:44:56.476Z,8.30
2022-12-18T01:47:46.256Z,9.25
2022-12-18T01:50:15.910Z,8.32
2022-12-18T01:52:44.248Z,8.55
2022-12-18T01:55:11.140Z,8.90
2022-12-18T01:57:38.520Z,8.35
2022-12-18T02:00:08.917Z,8.25
2022-12-18T02:02:35.737Z,8.25
2022-12-18T02:05:03.544Z,8.15
2022-12-18T02:07:44.430Z,8.88
2022-12-18T02:10:20.464Z,7.82
2022-12-18T02:12:54.097Z,8.95
2022-12-18T02:15:24.344Z,8.35
2022-12-18T02:17:58.432Z,10.05
2022-12-18T02:20:37.033Z,10.73
2022-12-18T02:23:34.557Z,8.90
2022-12-18T02:26:01.207Z,9.30
2022-12-18T02:28:30.701Z,9.15
2022-12-18T02:30:57.812Z,8.40
2022-12-18T02:33:24.525Z,10.00
2022-12-18T02:35:51.196Z,8.57
2022-12-18T02:38:17.897Z,7.47
2022-12-18T02:40:44.623Z,8.95
2022-12-18T02:43:12.667Z,9.45
2022-12-18T02:45:56.134Z,8.52
2022-12-18T02:48:31.991Z,8.70
2022-12-18T02:51:24.915Z,7.55
2022-12-18T02:53:54.652Z,7.72
2022-12-18T02:56:22.871Z,7.22
2022-12-18T02:58:52.554Z,6.50
2022-12-18T03:01:40.059Z,7.97
2022-12-18T03:04:20.375Z,8.57
2022-12-18T03:06:51.105Z,7.20
2022-12-18T03:09:23.477Z,9.13
2022-12-18T03:11:54.860Z,7.75
2022-12-18T03:14:21.593Z,9.68
2022-12-18T03:16:49.821Z,7.10
2022-12-18T03:19:17.986Z,9.20
2022-12-18T03:21:48.574Z,7.07
2022-12-18T03:24:15.251Z,7.70
2022-12-18T03:26:44.914Z,6.72
2022-12-18T03:29:15.247Z,7.57
2022-12-18T03:31:42.138Z,7.60
2022-12-18T03:34:17.218Z,5.90
2022-12-18T03:36:43.901Z,8.60
2022-12-18T03:39:10.566Z,5.88
2022-12-18T03:41:52.563Z,8.68
2022-12-18T03:44:25.236Z,5.85
2022-12-18T03:46:55.754Z,8.15
2022-12-18T03:49:47.686Z,5.85
2022-12-18T03:52:33.729Z,6.85
2022-12-18T03:55:00.412Z,6.72
2022-12-18T03:57:28.967Z,7.45
2022-12-18T04:00:08.812Z,6.22
2022-12-18T04:02:35.787Z,8.65
2022-12-18T04:05:04.002Z,6.68
2022-12-18T04:07:30.670Z,6.32
2022-12-18T04:09:57.909Z,6.50
2022-12-18T04:12:28.096Z,7.93
2022-12-18T04:14:54.812Z,7.38
2022-12-18T04:17:21.771Z,7.32
2022-12-18T04:19:48.443Z,6.30
2022-12-18T04:22:15.143Z,7.32
2022-12-18T04:24:41.874Z,6.35
2022-12-18T04:27:08.611Z,7.82
2022-12-18T04:29:35.281Z,7.00
2022-12-18T04:32:01.972Z,6.88
2022-12-18T04:34:29.548Z,7.55
2022-12-18T04:36:56.250Z,6.43
2022-12-18T04:39:23.735Z,7.78
2022-12-18T04:41:51.440Z,6.28
2022-12-18T04:44:18.397Z,7.43
2022-12-18T04:46:45.119Z,6.57
2022-12-18T04:49:11.802Z,7.32
2022-12-18T04:51:38.491Z,6.80
2022-12-18T04:54:05.191Z,7.10
2022-12-18T04:56:32.391Z,7.32
2022-12-18T04:58:59.064Z,6.88
2022-12-18T05:01:30.998Z,7.35
2022-12-18T05:04:01.286Z,8.00
2022-12-18T05:06:27.995Z,7.25
2022-12-18T05:08:54.675Z,8.25
2022-12-18T05:11:21.368Z,7.88
2022-12-18T05:13:48.066Z,7.18
2022-12-18T05:16:15.011Z,7.88
2022-12-18T05:18:41.772Z,9.38
2022-12-18T05:21:08.572Z,8.98
2022-12-18T05:23:35.241Z,8.07
2022-12-18T05:26:03.070Z,8.77
2022-12-18T05:28:30.475Z,7.68
2022-12-18T05:30:59.217Z,8.50
2022-12-18T05:33:26.622Z,7.45
2022-12-18T05:35:57.817Z,10.50
2022-12-18T05:38:25.343Z,8.93
2022-12-18T05:40:52.308Z,9.27
2022-12-18T05:43:21.604Z,10.32
2022-12-18T05:45:48.780Z,8.45
2022-12-18T05:48:15.784Z,9.90
2022-12-18T05:50:43.838Z,8.10
2022-12-18T05:53:10.580Z,9.73
2022-12-18T05:55:37.604Z,7.78
2022-12-18T05:58:05.021Z,8.90
2022-12-18T06:00:32.328Z,8.25
2022-12-18T06:02:59.632Z,8.48
2022-12-18T06:05:26.618Z,8.35
2022-12-18T06:07:53.300Z,8.98
2022-12-18T06:10:20.305Z,7.85
2022-12-18T06:12:46.985Z,7.97
2022-12-18T06:15:14.251Z,12.18
2022-12-18T06:17:40.958Z,10.02
2022-12-18T06:20:08.043Z,10.43
2022-12-18T06:22:34.713Z,8.25
2022-12-18T06:25:01.605Z,6.47
2022-12-18T06:27:28.267Z,8.05
2022-12-18T06:29:54.959Z,7.03
2022-12-18T06:32:21.803Z,8.77
2022-12-18T06:34:48.493Z,7.68
2022-12-18T06:37:15.143Z,7.72
2022-12-18T06:39:41.826Z,7.55
2022-12-18T06:42:08.486Z,9.15
2022-12-18T06:44:35.231Z,7.60
2022-12-18T06:47:02.068Z,8.73
2022-12-18T06:49:30.653Z,9.23
2022-12-18T06:51:57.547Z,7.80
2022-12-18T06:54:24.217Z,7.32
2022-12-18T06:56:50.891Z,8.25
2022-12-18T06:59:17.794Z,8.38
2022-12-18T07:01:44.579Z,6.85
2022-12-18T07:04:11.419Z,9.75
2022-12-18T07:06:38.108Z,7.30
2022-12-18T07:09:04.804Z,8.65
2022-12-18T07:11:33.669Z,6.95
2022-12-18T07:14:00.384Z,7.85
2022-12-18T07:16:27.319Z,10.65
2022-12-18T07:18:54.887Z,8.43
2022-12-18T07:21:21.646Z,7.25
2022-12-18T07:23:48.345Z,9.82
2022-12-18T07:26:16.213Z,9.73
2022-12-18T07:28:43.299Z,7.90
2022-12-18T07:31:21.651Z,7.35
2022-12-18T07:33:48.748Z,7.30
2022-12-18T07:36:15.451Z,10.07
2022-12-18T07:38:42.224Z,9.32
2022-12-18T07:41:10.970Z,7.85
2022-12-18T07:43:38.133Z,10.80
2022-12-18T07:46:05.490Z,8.65
2022-12-18T07:48:32.398Z,9.00
2022-12-18T07:51:03.141Z,7.20
2022-12-18T07:53:29.807Z,7.55
2022-12-18T07:56:25.589Z,8.00
2022-12-18T07:58:44.528Z,8.85
2022-12-18T08:01:12.066Z,9.57
2022-12-18T08:03:39.547Z,9.75
2022-12-18T08:06:08.103Z,8.73
2022-12-18T08:08:34.993Z,8.63
2022-12-18T08:11:01.695Z,7.22
2022-12-18T08:13:28.599Z,8.48
2022-12-18T08:16:06.586Z,9.57
2022-12-18T08:18:35.351Z,8.70
2022-12-18T08:21:12.516Z,9.57
2022-12-18T08:23:42.694Z,8.75
2022-12-18T08:26:10.384Z,7.45
2022-12-18T08:28:37.074Z,9.07
2022-12-18T08:31:03.843Z,8.77
2022-12-18T08:33:30.584Z,7.30
2022-12-18T08:35:57.222Z,9.00
2022-12-18T08:38:23.946Z,8.18
2022-12-18T08:40:50.606Z,10.05
2022-12-18T08:43:17.304Z,7.90
2022-12-18T08:45:44.096Z,7.63
2022-12-18T08:48:10.860Z,8.85
2022-12-18T08:50:37.562Z,8.63
2022-12-18T08:53:04.340Z,11.25
2022-12-18T08:55:31.021Z,11.93
2022-12-18T08:57:57.736Z,8.90
2022-12-18T09:00:24.461Z,11.00
2022-12-18T09:02:51.367Z,9.02
2022-12-18T09:05:18.153Z,9.52
2022-12-18T09:07:44.852Z,10.00
2022-12-18T09:10:12.105Z,10.45
2022-12-18T09:12:38.783Z,9.15
2022-12-18T09:15:06.020Z,9.68
2022-12-18T09:17:32.700Z,8.98
2022-12-18T09:19:59.403Z,9.82
2022-12-18T09:22:26.136Z,8.93
2022-12-18T09:24:52.816Z,9.43
2022-12-18T09:27:19.490Z,10.30
2022-12-18T09:29:46.723Z,9.70
2022-12-18T09:32:16.374Z,10.23
2022-12-18T09:34:47.259Z,9.25
2022-12-18T09:37:14.023Z,9.13
2022-12-18T09:39:40.714Z,8.38
2022-12-18T09:42:07.399Z,9.57
2022-12-18T09:44:44.472Z,10.57
2022-12-18T09:47:22.182Z,10.50
2022-12-18T09:49:51.945Z,9.93
2022-12-18T09:52:36.940Z,9.27
2022-12-18T09:55:37.122Z,9.77
2022-12-18T09:58:19.580Z,10.02
2022-12-18T10:00:46.252Z,9.55
2022-12-18T10:03:14.456Z,10.35
2022-12-18T10:05:59.494Z,10.07
2022-12-18T10:08:52.765Z,10.55
2022-12-18T10:11:45.043Z,9.98
2022-12-18T10:14:38.826Z,8.20
2022-12-18T10:17:15.138Z,8.07
2022-12-18T10:19:53.528Z,8.63
2022-12-18T10:22:36.402Z,9.52
2022-12-18T10:25:30.240Z,7.82
2022-12-18T10:28:18.354Z,10.55
2022-12-18T10:30:45.329Z,8.45
2022-12-18T10:33:20.766Z,7.90
2022-12-18T10:35:48.170Z,9.13
2022-12-18T10:38:17.875Z,8.00
2022-12-18T10:41:01.156Z,10.27
2022-12-18T10:43:32.106Z,8.45
2022-12-18T10:46:03.000Z,9.23
2022-12-18T10:48:29.849Z,7.70
2022-12-18T10:51:12.412Z,7.43
2022-12-18T10:53:40.775Z,7.53
2022-12-18T10:56:07.836Z,8.80
2022-12-18T10:58:38.848Z,8.27
2022-12-18T11:01:12.325Z,8.20
2022-12-18T11:04:02.703Z,7.97
2022-12-18T11:06:29.855Z,8.27
2022-12-18T11:09:01.650Z,9.18
2022-12-18T11:11:28.384Z,7.88
2022-12-18T11:14:04.984Z,7.75
2022-12-18T11:16:37.446Z,8.23
2022-12-18T11:19:36.763Z,8.40
2022-12-18T11:22:18.662Z,8.57
2022-12-18T11:25:29.645Z,8.40
2022-12-18T11:27:42.181Z,7.95
2022-12-18T11:30:21.055Z,10.77
2022-12-18T11:33:07.983Z,8.48
2022-12-18T11:35:49.442Z,9.57
2022-12-18T11:38:19.132Z,9.10
2022-12-18T11:40:47.098Z,11.50
2022-12-18T11:43:33.294Z,9.05
2022-12-18T11:46:07.807Z,8.10
2022-12-18T11:48:40.024Z,9.77
2022-12-18T11:51:10.442Z,9.35
2022-12-18T11:53:37.144Z,8.18
2022-12-18T11:56:27.755Z,9.80
2022-12-18T11:59:07.159Z,8.80
2022-12-18T12:01:37.645Z,9.15
2022-12-18T12:04:27.258Z,7.82
2022-12-18T12:07:12.349Z,10.32
2022-12-18T12:09:46.237Z,8.30
2022-12-18T12:12:15.673Z,8.35
2022-12-18T12:14:48.623Z,10.07
2022-12-18T12:19:54.058Z,9.50
2022-12-18T12:22:37.770Z,8.10
2022-12-18T12:25:10.424Z,8.40
2022-12-18T12:28:15.299Z,7.95
2022-12-18T12:30:53.890Z,6.55
2022-12-18T12:33:38.701Z,8.35
2022-12-18T12:36:11.411Z,9.27
2022-12-18T12:38:58.649Z,8.30
2022-12-18T12:41:26.884Z,7.85
2022-12-18T12:43:53.777Z,8.23
2022-12-18T12:46:21.047Z,9.60
2022-12-18T12:49:00.608Z,8.07
2022-12-18T12:51:31.787Z,9.23
2022-12-18T12:53:59.452Z,9.18
2022-12-18T12:56:30.724Z,9.50
2022-12-18T12:59:00.423Z,9.77
2022-12-18T13:01:29.952Z,7.68
2022-12-18T13:07:16.156Z,9.88
2022-12-18T13:10:31.975Z,9.43
2022-12-18T13:13:09.376Z,8.13
2022-12-18T13:13:43.824Z,8.32
2022-12-18T13:15:47.116Z,8.55
2022-12-18T13:18:23.274Z,7.60
2022-12-18T13:21:22.881Z,6.43
2022-12-18T13:23:49.614Z,7.07
2022-12-18T13:26:24.792Z,6.38
2022-12-18T13:28:54.995Z,6.75
2022-12-18T13:31:31.016Z,7.50
2022-12-18T13:34:26.685Z,6.10
2022-12-18T13:36:55.545Z,7.50
2022-12-18T13:39:34.740Z,5.75
2022-12-18T13:42:08.095Z,7.22
2022-12-18T13:44:41.810Z,6.32
2022-12-18T13:47:34.448Z,5.65
2022-12-18T13:50:01.956Z,5.32
2022-12-18T13:52:35.964Z,5.60
2022-12-18T13:55:03.506Z,6.43
2022-12-18T13:57:33.131Z,6.40
2022-12-18T14:00:15.594Z,4.68
2022-12-18T14:02:42.473Z,6.63
2022-12-18T14:05:47.884Z,4.63
2022-12-18T14:08:15.641Z,4.82
2022-12-18T14:10:47.990Z,5.38
2022-12-18T14:13:37.179Z,5.70
2022-12-18T14:16:05.099Z,4.88
2022-12-18T14:18:48.898Z,5.93
2022-12-18T14:21:28.090Z,4.35
2022-12-18T14:24:07.099Z,5.35
2022-12-18T14:26:33.881Z,4.30
2022-12-18T14:29:02.371Z,3.55
2022-12-18T14:31:30.616Z,4.72
2022-12-18T14:33:57.304Z,3.95
2022-12-18T14:36:28.394Z,3.92
2022-12-18T14:38:59.054Z,4.20
2022-12-18T14:41:26.222Z,5.45
2022-12-18T14:43:54.034Z,6.30
2022-12-18T14:46:40.211Z,5.15
2022-12-18T14:49:29.961Z,5.45
2022-12-18T14:52:00.886Z,6.13
2022-12-18T14:54:28.123Z,4.28
2022-12-18T14:57:06.324Z,4.82
2022-12-18T14:59:33.028Z,5.00
2022-12-18T15:02:18.251Z,4.50
2022-12-18T15:04:45.168Z,4.68
2022-12-18T15:07:15.996Z,4.18
2022-12-18T15:10:04.802Z,4.90
2022-12-18T15:12:36.599Z,4.75
2022-12-18T15:15:04.609Z,3.42
2022-12-18T15:17:31.416Z,4.35
2022-12-18T15:20:10.304Z,3.85
2022-12-18T15:22:37.199Z,2.78
2022-12-18T15:25:17.419Z,3.40
2022-12-18T15:27:46.823Z,3.60
2022-12-18T15:30:18.513Z,4.75
2022-12-18T15:32:45.307Z,4.60
2022-12-18T15:35:12.057Z,3.35
2022-12-18T15:37:38.910Z,3.78
2022-12-18T15:40:07.278Z,3.90
2022-12-18T15:42:33.976Z,4.53
2022-12-18T15:45:00.679Z,4.82
2022-12-18T15:47:27.340Z,4.80
2022-12-18T15:49:54.007Z,4.00
2022-12-18T15:52:20.678Z,4.32
2022-12-18T15:54:47.374Z,3.78
2022-12-18T15:57:14.171Z,3.67
2022-12-18T15:59:41.031Z,3.75
2022-12-18T16:02:13.805Z,3.38
2022-12-18T16:07:16.227Z,2.92
2022-12-18T16:09:49.898Z,3.15
2022-12-18T16:12:22.788Z,2.75
2022-12-18T16:17:16.226Z,3.47
2022-12-18T16:19:42.922Z,2.67
2022-12-18T16:22:22.721Z,1.60
2022-12-18T16:24:49.684Z,1.73
2022-12-18T16:27:16.363Z,3.40
2022-12-18T16:29:43.053Z,1.65
2022-12-18T16:32:11.778Z,2.25
2022-12-18T16:34:38.509Z,2.30
2022-12-18T16:37:06.622Z,1.42
2022-12-18T16:39:36.832Z,2.80
2022-12-18T16:42:17.593Z,1.25
2022-12-18T16:44:44.660Z,0.90
2022-12-18T16:47:13.243Z,1.55
2022-12-18T16:49:42.012Z,1.17
2022-12-18T16:52:08.666Z,1.05
2022-12-18T16:54:35.428Z,0.98
2022-12-18T16:57:02.252Z,1.52
2022-12-18T16:59:29.117Z,1.20
2022-12-18T17:01:57.009Z,1.50
2022-12-18T17:04:23.869Z,1.83
2022-12-18T17:06:50.526Z,1.50
2022-12-18T17:09:17.647Z,0.90
2022-12-18T17:11:44.366Z,0.93
2022-12-18T17:14:19.126Z,1.58
2022-12-18T17:16:46.381Z,1.25
2022-12-18T17:19:17.076Z,1.00
2022-12-18T17:21:45.033Z,1.70
2022-12-18T17:24:11.856Z,1.25
2022-12-18T17:26:38.559Z,1.42
2022-12-18T17:29:05.311Z,1.00
2022-12-18T17:31:32.220Z,1.10
2022-12-18T17:33:58.948Z,1.17
2022-12-18T17:36:25.768Z,0.90
2022-12-18T17:38:56.371Z,1.42
2022-12-18T17:41:23.324Z,1.15
2022-12-18T17:43:54.662Z,1.10
2022-12-18T17:46:21.563Z,0.85
2022-12-18T17:48:48.468Z,1.08
2022-12-18T17:51:15.438Z,1.17
2022-12-18T17:53:42.465Z,1.98
2022-12-18T17:56:12.272Z,0.70
2022-12-18T17:58:39.114Z,0.55
2022-12-18T18:01:06.053Z,1.63
2022-12-18T18:03:33.317Z,1.35
2022-12-18T18:06:00.813Z,0.70
2022-12-18T18:08:27.740Z,1.13
2022-12-18T18:10:54.849Z,0.95
2022-12-18T18:13:23.029Z,2.55
2022-12-18T18:15:58.949Z,0.57
2022-12-18T18:18:25.689Z,1.90
2022-12-18T18:20:52.367Z,0.93
2022-12-18T18:23:20.680Z,1.50
2022-12-18T18:25:47.402Z,1.65
2022-12-18T18:28:14.091Z,1.35
2022-12-18T18:30:40.743Z,1.67
2022-12-18T18:33:11.832Z,0.80
2022-12-18T18:35:53.790Z,0.88
2022-12-18T18:38:21.005Z,0.80
2022-12-18T18:40:47.718Z,1.52
2022-12-18T18:43:14.401Z,0.90
2022-12-18T18:45:41.140Z,0.68
2022-12-18T18:48:09.596Z,1.52
2022-12-18T18:50:36.287Z,1.17
2022-12-18T18:53:02.965Z,2.15
2022-12-18T18:55:29.611Z,1.48
2022-12-18T18:57:56.293Z,2.65
2022-12-18T19:00:23.156Z,1.02
2022-12-18T19:02:50.367Z,0.85
2022-12-18T19:05:17.233Z,0.90
2022-12-18T19:07:43.902Z,0.95
2022-12-18T19:10:10.566Z,0.75
2022-12-18T19:12:37.269Z,1.38
2022-12-18T19:15:06.604Z,1.10
2022-12-18T19:17:33.384Z,1.40
2022-12-18T19:20:00.797Z,1.13
2022-12-18T19:22:27.498Z,1.65
2022-12-18T19:24:54.212Z,0.77
2022-12-18T19:27:20.898Z,0.73
2022-12-18T19:29:48.962Z,0.82
2022-12-18T19:32:15.731Z,1.38
2022-12-18T19:34:42.476Z,1.13
2022-12-18T19:37:11.866Z,0.80
2022-12-18T19:39:38.641Z,0.82
2022-12-18T19:42:05.375Z,1.33
2022-12-18T19:44:32.067Z,1.35
2022-12-18T19:46:58.739Z,0.70
2022-12-18T19:49:25.409Z,1.15
2022-12-18T19:51:52.116Z,1.15
2022-12-18T19:54:18.835Z,2.22
2022-12-18T19:56:45.804Z,1.33
2022-12-18T19:59:12.509Z,0.90
2022-12-18T20:01:39.296Z,1.23
2022-12-18T20:04:06.369Z,1.20
2022-12-18T20:06:35.099Z,1.35
2022-12-18T20:09:04.415Z,0.77
2022-12-18T20:11:31.541Z,0.90
2022-12-18T20:13:58.311Z,0.80
2022-12-18T20:16:25.038Z,1.98
2022-12-18T20:18:52.431Z,3.33
2022-12-18T20:21:19.608Z,1.08
2022-12-18T20:23:46.298Z,1.08
2022-12-18T20:26:13.178Z,0.73
2022-12-18T20:28:40.346Z,0.88
2022-12-18T20:31:07.748Z,2.55
2022-12-18T20:33:34.963Z,0.50
2022-12-18T20:36:02.854Z,0.50
2022-12-18T20:38:30.368Z,1.05
2022-12-18T20:40:58.427Z,1.45
2022-12-18T20:43:25.154Z,0.55
2022-12-18T20:45:51.902Z,0.70
2022-12-18T20:48:23.561Z,1.20
2022-12-18T20:51:04.189Z,0.47
2022-12-18T20:53:31.148Z,0.70
2022-12-18T20:55:57.860Z,0.80
2022-12-18T20:58:24.973Z,0.98
2022-12-18T21:01:05.973Z,1.25
2022-12-18T21:03:32.766Z,0.75
2022-12-18T21:05:59.462Z,0.60
2022-12-18T21:08:26.152Z,0.30
2022-12-18T21:10:52.868Z,1.10
2022-12-18T21:13:22.268Z,0.30
2022-12-18T21:15:48.952Z,0.50
2022-12-18T21:18:15.637Z,0.77
2022-12-18T21:20:42.384Z,0.90
2022-12-18T21:23:16.242Z,1.15
2022-12-18T21:25:44.212Z,0.55
2022-12-18T21:28:12.324Z,0.45
2022-12-18T21:30:39.074Z,0.45
2022-12-18T21:33:05.767Z,0.95
2022-12-18T21:35:32.472Z,0.68
2022-12-18T21:37:59.153Z,0.30
2022-12-18T21:40:25.837Z,0.30
2022-12-18T21:42:52.666Z,2.90
2022-12-18T21:45:19.482Z,2.88
2022-12-18T21:47:46.187Z,0.57
2022-12-18T21:50:12.914Z,1.60
2022-12-18T21:52:39.638Z,0.57
2022-12-18T21:55:09.963Z,2.00
2022-12-18T21:57:38.276Z,0.47
2022-12-18T22:00:06.330Z,0.55
2022-12-18T22:02:36.058Z,0.63
2022-12-18T22:05:02.896Z,0.47
2022-12-18T22:07:29.970Z,0.38
2022-12-18T22:09:58.807Z,0.93
2022-12-18T22:12:26.780Z,0.73
2022-12-18T22:14:53.548Z,0.40
2022-12-18T22:17:20.198Z,0.50
2022-12-18T22:19:48.026Z,0.40
2022-12-18T22:22:14.722Z,0.50
2022-12-18T22:24:41.460Z,1.45
2022-12-18T22:27:09.063Z,0.73
2022-12-18T22:29:35.831Z,1.38
2022-12-18T22:32:03.277Z,2.10
2022-12-18T22:34:34.241Z,1.85
2022-12-18T22:37:03.014Z,0.98
2022-12-18T22:39:30.023Z,1.85
2022-12-18T22:41:57.584Z,1.67
2022-12-18T22:44:24.438Z,0.47
2022-12-18T22:47:05.614Z,0.80
2022-12-18T22:49:34.940Z,0.90
2022-12-18T22:52:02.788Z,1.55
2022-12-18T22:54:30.905Z,1.05
2022-12-18T22:56:57.612Z,0.63
2022-12-18T22:59:24.377Z,0.22
2022-12-18T23:01:58.700Z,1.02
2022-12-18T23:04:36.259Z,1.08
2022-12-18T23:07:04.668Z,1.17
2022-12-18T23:09:31.419Z,1.13
2022-12-18T23:11:58.103Z,2.17
2022-12-18T23:14:24.825Z,2.30
2022-12-18T23:16:52.331Z,0.60
2022-12-18T23:19:20.139Z,1.60
2022-12-18T23:21:46.934Z,1.42
2022-12-18T23:24:13.720Z,2.22
2022-12-18T23:26:40.431Z,1.80
2022-12-18T23:29:07.171Z,0.98
2022-12-18T23:31:35.300Z,2.08
2022-12-18T23:34:02.345Z,1.48
2022-12-18T23:36:29.571Z,1.00
2022-12-18T23:39:00.012Z,0.75
2022-12-18T23:41:28.396Z,1.85
2022-12-18T23:43:55.063Z,1.10
2022-12-18T23:46:24.592Z,3.55
2022-12-18T23:48:51.389Z,0.47
2022-12-18T23:51:19.361Z,0.55
2022-12-18T23:53:46.254Z,1.27
2022-12-18T23:56:13.149Z,2.10
2022-12-18T23:58:39.992Z,0.40
